createdAt,value
2018-11-13T00:00:23.115Z,45.13
2018-11-13T00:02:52.250Z,41.47
2018-11-13T00:05:21.102Z,41.23
2018-11-13T00:07:55.519Z,41.63
2018-11-13T00:10:24.138Z,45.53
2018-11-13T00:12:52.297Z,41.43
2018-11-13T00:15:21.507Z,39.88
2018-11-13T00:17:49.625Z,50.33
2018-11-13T00:20:20.123Z,41.10
2018-11-13T00:22:48.352Z,41.43
2018-11-13T00:25:17.693Z,45.30
2018-11-13T00:27:46.311Z,34.60
2018-11-13T00:30:16.934Z,43.07
2018-11-13T00:32:45.277Z,38.63
2018-11-13T00:35:14.897Z,43.10
2018-11-13T00:37:43.607Z,40.83
2018-11-13T00:40:12.237Z,35.15
2018-11-13T00:42:41.149Z,36.80
2018-11-13T00:45:10.893Z,40.87
2018-11-13T00:47:39.350Z,40.63
2018-11-13T00:50:11.464Z,40.33
2018-11-13T00:52:40.605Z,40.13
2018-11-13T00:55:09.329Z,42.20
2018-11-13T00:57:38.477Z,44.17
2018-11-13T01:00:10.393Z,39.77
2018-11-13T01:02:39.436Z,43.87
2018-11-13T01:05:09.714Z,46.13
2018-11-13T01:07:38.129Z,49.27
2018-11-13T01:10:07.550Z,55.17
2018-11-13T01:12:36.198Z,52.57
2018-11-13T01:15:04.686Z,61.40
2018-11-13T01:17:33.881Z,71.87
2018-11-13T01:20:03.509Z,66.60
2018-11-13T01:22:33.134Z,60.80
2018-11-13T01:25:02.013Z,62.90
2018-11-13T01:27:30.826Z,69.10
2018-11-13T01:30:00.146Z,66.93
2018-11-13T01:32:29.837Z,68.90
2018-11-13T01:34:58.049Z,67.57
2018-11-13T01:37:26.775Z,67.80
2018-11-13T01:39:55.297Z,71.97
2018-11-13T01:42:24.165Z,66.30
2018-11-13T01:44:52.457Z,59.57
2018-11-13T01:47:21.785Z,63.48
2018-11-13T01:49:50.105Z,63.87
2018-11-13T01:52:19.141Z,57.30
2018-11-13T01:54:48.232Z,63.53
2018-11-13T01:57:16.574Z,58.33
2018-11-13T01:59:45.321Z,57.97
2018-11-13T02:02:14.338Z,60.58
2018-11-13T02:04:42.550Z,63.00
2018-11-13T02:07:10.631Z,58.77
2018-11-13T02:09:38.771Z,52.87
2018-11-13T02:12:07.485Z,68.63
2018-11-13T02:14:36.325Z,58.50
2018-11-13T02:17:05.437Z,61.43
2018-11-13T02:19:33.681Z,62.67
2018-11-13T02:22:02.017Z,61.63
2018-11-13T02:24:30.164Z,55.50
2018-11-13T02:27:00.066Z,56.50
2018-11-13T02:29:28.436Z,56.92
2018-11-13T02:31:56.649Z,58.90
2018-11-13T02:34:25.526Z,61.90
2018-11-13T02:36:53.890Z,66.67
2018-11-13T02:39:22.085Z,58.87
2018-11-13T02:41:50.270Z,63.50
2018-11-13T02:44:18.637Z,66.37
2018-11-13T02:46:47.441Z,72.60
2018-11-13T02:49:15.619Z,66.13
2018-11-13T02:51:43.794Z,75.70
2018-11-13T02:54:12.423Z,60.87
2018-11-13T02:56:40.706Z,71.40
2018-11-13T02:59:09.154Z,65.70
2018-11-13T03:01:38.452Z,67.13
2018-11-13T03:04:07.098Z,68.93
2018-11-13T03:06:35.541Z,72.00
2018-11-13T03:09:06.708Z,70.37
2018-11-13T03:11:35.407Z,75.77
2018-11-13T03:14:03.505Z,74.80
2018-11-13T03:16:32.743Z,76.90
2018-11-13T03:19:02.726Z,78.80
2018-11-13T03:21:30.869Z,79.10
2018-11-13T03:23:59.335Z,75.17
2018-11-13T03:26:27.430Z,73.83
2018-11-13T03:28:55.864Z,77.23
2018-11-13T03:31:24.267Z,80.23
2018-11-13T03:33:53.571Z,73.13
2018-11-13T03:36:21.774Z,73.83
2018-11-13T03:38:50.369Z,76.67
2018-11-13T03:41:18.639Z,76.87
2018-11-13T03:43:48.689Z,86.53
2018-11-13T03:46:16.966Z,81.17
2018-11-13T03:51:26.581Z,82.40
2018-11-13T03:53:56.931Z,73.10
2018-11-13T03:56:25.966Z,66.43
2018-11-13T03:58:54.705Z,73.97
2018-11-13T04:01:24.478Z,75.03
2018-11-13T04:03:53.761Z,61.03
2018-11-13T04:07:25.513Z,82.00
2018-11-13T04:09:53.646Z,74.53
2018-11-13T04:12:21.838Z,70.80
2018-11-13T04:14:50.161Z,75.37
2018-11-13T04:17:19.901Z,76.00
2018-11-13T04:19:48.753Z,75.17
2018-11-13T04:22:16.990Z,79.80
2018-11-13T04:24:45.787Z,73.23
2018-11-13T04:27:14.603Z,75.57
2018-11-13T04:29:43.889Z,82.47
2018-11-13T04:32:12.463Z,72.67
2018-11-13T04:34:41.187Z,72.17
2018-11-13T04:37:09.958Z,73.27
2018-11-13T04:39:39.265Z,78.07
2018-11-13T04:42:08.669Z,81.80
2018-11-13T04:44:37.522Z,73.28
2018-11-13T04:47:05.994Z,78.60
2018-11-13T04:49:34.598Z,72.33
2018-11-13T04:52:03.569Z,66.07
2018-11-13T04:54:32.574Z,72.75
2018-11-13T04:57:02.454Z,88.13
2018-11-13T04:59:31.734Z,77.57
2018-11-13T05:02:00.157Z,82.07
2018-11-13T05:04:28.575Z,63.52
2018-11-13T05:06:58.302Z,68.90
2018-11-13T05:09:28.577Z,78.87
2018-11-13T05:11:57.748Z,74.40
2018-11-13T05:14:25.982Z,82.05
2018-11-13T05:16:54.178Z,81.43
2018-11-13T05:19:23.450Z,78.43
2018-11-13T05:21:51.601Z,76.43
2018-11-13T05:24:19.921Z,88.70
2018-11-13T05:26:48.627Z,76.97
2018-11-13T05:29:16.986Z,89.53
2018-11-13T05:31:45.699Z,85.77
2018-11-13T05:34:14.402Z,77.13
2018-11-13T05:36:43.071Z,79.15
2018-11-13T05:39:12.597Z,79.83
2018-11-13T05:41:41.706Z,79.72
2018-11-13T05:44:10.531Z,80.00
2018-11-13T05:46:39.809Z,82.93
2018-11-13T05:49:08.885Z,82.77
2018-11-13T05:51:37.518Z,79.87
2018-11-13T05:54:06.210Z,81.43
2018-11-13T05:56:34.472Z,72.00
2018-11-13T05:59:02.646Z,62.40
2018-11-13T06:01:31.373Z,76.62
2018-11-13T06:03:59.569Z,72.50
2018-11-13T06:06:27.713Z,73.03
2018-11-13T06:08:55.802Z,64.67
2018-11-13T06:11:24.134Z,64.83
2018-11-13T06:13:52.270Z,68.00
2018-11-13T06:16:20.373Z,66.73
2018-11-13T06:18:48.459Z,65.10
2018-11-13T06:21:17.823Z,63.20
2018-11-13T06:23:47.226Z,60.80
2018-11-13T06:26:15.662Z,70.40
2018-11-13T06:28:45.187Z,67.20
2018-11-13T06:31:14.126Z,65.13
2018-11-13T06:33:43.022Z,66.40
2018-11-13T06:36:11.601Z,65.77
2018-11-13T06:38:40.621Z,69.57
2018-11-13T06:41:09.290Z,57.95
2018-11-13T06:43:37.550Z,58.83
2018-11-13T06:46:06.412Z,53.97
2018-11-13T06:48:34.626Z,59.10
2018-11-13T06:51:03.149Z,63.30
2018-11-13T06:53:45.570Z,59.55
2018-11-13T06:56:14.475Z,64.17
2018-11-13T06:58:42.633Z,64.63
2018-11-13T07:01:11.362Z,62.13
2018-11-13T07:03:39.500Z,56.80
2018-11-13T07:06:07.685Z,57.93
2018-11-13T07:08:36.545Z,48.33
2018-11-13T07:11:05.140Z,58.67
2018-11-13T07:13:36.277Z,56.27
2018-11-13T07:16:05.489Z,48.20
2018-11-13T07:18:34.235Z,44.07
2018-11-13T07:21:03.487Z,49.90
2018-11-13T07:23:31.690Z,51.03
2018-11-13T07:26:00.435Z,46.73
2018-11-13T07:28:28.594Z,47.53
2018-11-13T07:30:57.006Z,43.37
2018-11-13T07:33:25.973Z,37.63
2018-11-13T07:35:54.273Z,41.77
2018-11-13T07:38:22.417Z,46.63
2018-11-13T07:40:50.796Z,45.27
2018-11-13T07:43:19.069Z,36.70
2018-11-13T07:45:47.421Z,35.70
2018-11-13T07:48:15.693Z,32.88
2018-11-13T07:50:44.690Z,35.87
2018-11-13T07:53:13.463Z,28.97
2018-11-13T07:55:41.695Z,31.97
2018-11-13T07:58:11.110Z,30.43
2018-11-13T08:00:39.417Z,32.20
2018-11-13T08:03:19.500Z,30.83
2018-11-13T08:05:48.266Z,29.60
2018-11-13T08:08:16.537Z,30.93
2018-11-13T08:10:44.691Z,27.93
2018-11-13T08:13:14.356Z,26.90
2018-11-13T08:15:43.120Z,32.07
2018-11-13T08:18:12.147Z,29.93
2018-11-13T08:20:42.087Z,29.67
2018-11-13T08:23:11.150Z,26.57
2018-11-13T08:25:40.103Z,30.70
2018-11-13T08:28:08.858Z,29.57
2018-11-13T08:30:37.082Z,26.60
2018-11-13T08:33:06.607Z,27.83
2018-11-13T08:35:35.440Z,22.90
2018-11-13T08:38:04.141Z,28.67
2018-11-13T08:40:32.790Z,27.83
2018-11-13T08:43:01.390Z,23.10
2018-11-13T08:45:29.522Z,29.12
2018-11-13T08:47:57.791Z,38.03
2018-11-13T08:50:25.920Z,25.43
2018-11-13T08:52:54.193Z,26.37
2018-11-13T08:55:24.226Z,23.63
2018-11-13T08:57:54.197Z,23.97
2018-11-13T09:00:22.310Z,24.00
2018-11-13T09:02:51.364Z,21.23
2018-11-13T09:05:21.483Z,19.77
2018-11-13T09:07:49.755Z,18.53
2018-11-13T09:10:19.378Z,20.43
2018-11-13T09:12:48.369Z,21.53
2018-11-13T09:15:18.679Z,26.23
2018-11-13T09:17:46.930Z,24.03
2018-11-13T09:20:17.166Z,22.17
2018-11-13T09:22:46.523Z,21.73
2018-11-13T09:25:17.761Z,21.70
2018-11-13T09:27:47.033Z,22.57
2018-11-13T09:30:16.898Z,17.60
2018-11-13T09:32:46.352Z,20.33
2018-11-13T09:35:15.857Z,18.10
2018-11-13T09:37:44.646Z,19.80
2018-11-13T09:40:16.561Z,18.17
2018-11-13T09:42:45.777Z,18.13
2018-11-13T09:45:14.944Z,18.93
2018-11-13T09:47:44.109Z,19.10
2018-11-13T09:50:14.341Z,19.43
2018-11-13T09:52:43.610Z,21.13
2018-11-13T09:55:13.298Z,20.63
2018-11-13T09:57:41.673Z,19.20
2018-11-13T10:00:12.518Z,21.70
2018-11-13T10:02:42.849Z,24.17
2018-11-13T10:05:11.100Z,21.00
2018-11-13T10:07:41.095Z,25.37
2018-11-13T10:10:10.892Z,19.87
2018-11-13T10:12:39.841Z,21.83
2018-11-13T10:15:10.247Z,21.77
2018-11-13T10:17:38.806Z,23.77
2018-11-13T10:20:09.226Z,25.93
2018-11-13T10:22:37.381Z,22.85
2018-11-13T10:25:06.526Z,20.97
2018-11-13T10:27:34.858Z,22.83
2018-11-13T10:30:03.538Z,20.87
2018-11-13T10:32:31.650Z,28.38
2018-11-13T10:35:00.051Z,24.37
2018-11-13T10:37:28.140Z,23.55
2018-11-13T10:39:57.158Z,23.80
2018-11-13T10:42:25.736Z,26.60
2018-11-13T10:44:59.222Z,24.50
2018-11-13T10:47:27.338Z,27.97
2018-11-13T10:49:56.626Z,25.00
2018-11-13T10:52:24.785Z,28.83
2018-11-13T10:54:53.454Z,27.53
2018-11-13T10:57:22.592Z,27.35
2018-11-13T10:59:51.152Z,23.63
2018-11-13T11:02:25.589Z,28.83
2018-11-13T11:04:54.037Z,23.70
2018-11-13T11:07:22.971Z,25.40
2018-11-13T11:09:51.173Z,24.10
2018-11-13T11:12:20.213Z,20.37
2018-11-13T11:14:48.541Z,25.83
2018-11-13T11:17:16.998Z,21.93
2018-11-13T11:19:45.618Z,17.30
2018-11-13T11:22:18.390Z,19.47
2018-11-13T11:24:47.566Z,19.40
2018-11-13T11:27:16.974Z,18.20
2018-11-13T11:29:45.850Z,18.40
2018-11-13T11:32:14.031Z,19.93
2018-11-13T11:34:44.915Z,19.87
2018-11-13T11:37:14.075Z,18.13
2018-11-13T11:39:42.218Z,17.30
2018-11-13T11:42:10.911Z,18.27
2018-11-13T11:44:39.078Z,16.45
2018-11-13T11:47:08.482Z,18.13
2018-11-13T11:49:39.774Z,15.63
2018-11-13T11:52:08.687Z,16.90
2018-11-13T11:54:36.814Z,20.87
2018-11-13T11:57:05.689Z,17.57
2018-11-13T11:59:34.602Z,19.83
2018-11-13T12:02:03.063Z,19.33
2018-11-13T12:04:31.220Z,21.00
2018-11-13T12:06:59.789Z,18.83
2018-11-13T12:09:27.902Z,18.77
2018-11-13T12:11:57.870Z,18.10
2018-11-13T12:14:26.191Z,16.37
2018-11-13T12:16:54.970Z,18.97
2018-11-13T12:19:23.178Z,22.00
2018-11-13T12:21:52.072Z,17.67
2018-11-13T12:24:20.977Z,19.95
2018-11-13T12:26:50.963Z,18.60
2018-11-13T12:29:19.111Z,20.20
2018-11-13T12:31:47.426Z,20.20
2018-11-13T12:34:16.339Z,20.30
2018-11-13T12:36:44.903Z,18.37
2018-11-13T12:39:14.405Z,18.50
2018-11-13T12:41:43.881Z,20.93
2018-11-13T12:44:15.571Z,16.77
2018-11-13T12:46:44.913Z,17.23
2018-11-13T12:49:15.044Z,18.03
2018-11-13T12:51:47.766Z,19.13
2018-11-13T12:54:17.370Z,14.90
2018-11-13T12:56:46.590Z,16.70
2018-11-13T12:59:15.026Z,15.87
2018-11-13T13:01:44.242Z,20.37
2018-11-13T13:04:12.838Z,18.27
2018-11-13T13:06:40.946Z,18.77
2018-11-13T13:09:10.358Z,17.27
2018-11-13T13:11:39.896Z,17.10
2018-11-13T13:14:15.350Z,17.23
2018-11-13T13:16:44.021Z,16.33
2018-11-13T13:19:13.198Z,21.10
2018-11-13T13:21:42.227Z,18.40
2018-11-13T13:24:10.329Z,14.10
2018-11-13T13:26:38.626Z,16.07
2018-11-13T13:29:07.383Z,22.90
2018-11-13T13:31:35.589Z,16.37
2018-11-13T13:34:03.690Z,17.97
2018-11-13T13:36:31.822Z,18.37
2018-11-13T13:39:00.934Z,21.27
2018-11-13T13:41:29.009Z,19.93
2018-11-13T13:43:57.315Z,18.80
2018-11-13T13:46:26.934Z,21.25
2018-11-13T13:48:55.053Z,17.30
2018-11-13T13:51:23.529Z,22.20
2018-11-13T13:53:52.182Z,19.43
2018-11-13T13:56:21.232Z,17.60
2018-11-13T13:58:49.358Z,19.40
2018-11-13T14:01:18.035Z,20.93
2018-11-13T14:03:47.972Z,19.70
2018-11-13T14:06:15.591Z,14.83
2018-11-13T14:08:43.941Z,19.63
2018-11-13T14:11:12.922Z,17.00
2018-11-13T14:13:42.442Z,19.67
2018-11-13T14:16:10.807Z,18.53
2018-11-13T14:18:40.074Z,15.37
2018-11-13T14:21:08.948Z,16.27
2018-11-13T14:23:37.359Z,15.80
2018-11-13T14:26:05.578Z,15.67
2018-11-13T14:28:35.791Z,12.80
2018-11-13T14:31:05.110Z,13.80
2018-11-13T14:33:33.302Z,12.73
2018-11-13T14:36:01.498Z,13.27
2018-11-13T14:38:29.647Z,12.67
2018-11-13T14:40:58.026Z,11.30
2018-11-13T14:43:26.738Z,9.73
2018-11-13T14:45:55.450Z,12.93
2018-11-13T14:48:24.113Z,13.77
2018-11-13T14:50:52.194Z,12.53
2018-11-13T14:53:22.145Z,12.18
2018-11-13T14:55:50.666Z,12.33
2018-11-13T14:58:19.386Z,11.77
2018-11-13T15:00:47.522Z,13.73
2018-11-13T15:03:17.586Z,14.47
2018-11-13T15:05:46.563Z,10.63
2018-11-13T15:08:14.825Z,14.03
2018-11-13T15:10:58.271Z,12.77
2018-11-13T15:13:27.558Z,11.47
2018-11-13T15:15:57.432Z,11.50
2018-11-13T15:18:25.582Z,11.40
2018-11-13T15:20:54.035Z,13.47
2018-11-13T15:23:23.002Z,11.23
2018-11-13T15:25:52.057Z,11.30
2018-11-13T15:28:20.334Z,14.87
2018-11-13T15:30:50.827Z,12.90
2018-11-13T15:33:21.291Z,13.03
2018-11-13T15:35:49.556Z,11.70
2018-11-13T15:38:18.605Z,14.17
2018-11-13T15:40:48.741Z,12.70
2018-11-13T15:43:17.554Z,10.80
2018-11-13T15:45:45.899Z,15.40
2018-11-13T15:48:16.441Z,13.07
2018-11-13T15:50:44.633Z,11.90
2018-11-13T15:53:13.537Z,12.73
2018-11-13T15:55:42.369Z,11.07
2018-11-13T15:58:13.420Z,12.90
2018-11-13T16:00:42.643Z,12.97
2018-11-13T16:03:19.980Z,15.40
2018-11-13T16:05:49.974Z,15.93
2018-11-13T16:08:18.617Z,12.63
2018-11-13T16:10:47.101Z,13.90
2018-11-13T16:13:17.192Z,12.17
2018-11-13T16:15:46.613Z,13.60
2018-11-13T16:18:16.226Z,11.47
2018-11-13T16:20:44.577Z,10.33
2018-11-13T16:23:13.533Z,11.60
2018-11-13T16:25:42.445Z,12.93
2018-11-13T16:28:10.628Z,11.03
2018-11-13T16:30:39.481Z,11.88
2018-11-13T16:33:08.125Z,10.73
2018-11-13T16:35:37.428Z,9.40
2018-11-13T16:38:07.243Z,11.30
2018-11-13T16:40:35.250Z,10.27
2018-11-13T16:43:04.584Z,12.00
2018-11-13T16:45:34.603Z,12.23
2018-11-13T16:48:04.616Z,10.67
2018-11-13T16:50:41.578Z,8.15
2018-11-13T16:53:10.019Z,8.73
2018-11-13T16:55:44.541Z,9.83
2018-11-13T16:58:14.141Z,8.50
2018-11-13T17:00:42.461Z,6.93
2018-11-13T17:03:11.079Z,7.90
2018-11-13T17:05:40.004Z,7.57
2018-11-13T17:08:08.042Z,6.97
2018-11-13T17:10:39.044Z,5.78
2018-11-13T17:13:07.150Z,7.33
2018-11-13T17:15:36.373Z,7.10
2018-11-13T17:18:05.754Z,9.20
2018-11-13T17:20:34.805Z,7.33
2018-11-13T17:23:03.678Z,8.17
2018-11-13T17:25:34.198Z,8.77
2018-11-13T17:28:03.606Z,10.10
2018-11-13T17:30:34.211Z,9.65
2018-11-13T17:33:03.928Z,9.90
2018-11-13T17:35:33.034Z,7.33
2018-11-13T17:38:02.132Z,10.87
2018-11-13T17:40:32.246Z,8.55
2018-11-13T17:43:02.449Z,9.07
2018-11-13T17:45:33.945Z,11.68
2018-11-13T17:48:03.127Z,9.93
2018-11-13T17:50:33.222Z,5.67
2018-11-13T17:53:03.167Z,11.07
2018-11-13T17:55:31.849Z,9.45
2018-11-13T17:58:03.231Z,7.53
2018-11-13T18:00:37.042Z,5.15
2018-11-13T18:03:07.549Z,10.77
2018-11-13T18:05:36.033Z,7.50
2018-11-13T18:08:05.038Z,5.00
2018-11-13T18:10:34.054Z,7.73
2018-11-13T18:13:03.037Z,4.53
2018-11-13T18:15:31.781Z,11.38
2018-11-13T18:18:00.328Z,4.57
2018-11-13T18:20:30.700Z,4.97
2018-11-13T18:23:00.301Z,4.97
2018-11-13T18:25:28.722Z,3.60
2018-11-13T18:27:58.356Z,8.30
2018-11-13T18:30:28.674Z,7.70
2018-11-13T18:32:57.794Z,3.90
2018-11-13T18:35:27.432Z,3.43
2018-11-13T18:37:56.402Z,5.47
2018-11-13T18:40:25.762Z,5.08
2018-11-13T18:42:55.769Z,3.90
2018-11-13T18:45:26.851Z,4.43
2018-11-13T18:47:55.425Z,4.93
2018-11-13T18:50:25.812Z,9.40
2018-11-13T18:52:54.195Z,7.77
2018-11-13T18:55:22.258Z,4.77
2018-11-13T18:57:51.829Z,8.33
2018-11-13T19:00:22.264Z,4.67
2018-11-13T19:02:50.425Z,6.57
2018-11-13T19:05:19.942Z,4.80
2018-11-13T19:07:48.453Z,4.70
2018-11-13T19:10:20.631Z,5.37
2018-11-13T19:12:48.983Z,4.67
2018-11-13T19:15:16.977Z,8.37
2018-11-13T19:17:46.826Z,4.97
2018-11-13T19:20:17.048Z,2.90
2018-11-13T19:22:45.594Z,4.63
2018-11-13T19:25:16.802Z,4.00
2018-11-13T19:27:46.035Z,4.23
2018-11-13T19:30:15.208Z,2.77
2018-11-13T19:32:43.985Z,6.40
2018-11-13T19:35:12.811Z,4.67
2018-11-13T19:37:41.558Z,4.13
2018-11-13T19:40:14.265Z,4.73
2018-11-13T19:42:42.861Z,3.70
2018-11-13T19:45:11.329Z,10.77
2018-11-13T19:47:39.683Z,4.83
2018-11-13T19:50:09.817Z,6.87
2018-11-13T19:52:38.209Z,7.43
2018-11-13T19:55:07.208Z,4.70
2018-11-13T19:57:35.373Z,3.70
2018-11-13T20:00:03.604Z,5.70
2018-11-13T20:02:32.110Z,6.42
2018-11-13T20:05:00.364Z,3.93
2018-11-13T20:07:28.457Z,4.83
2018-11-13T20:09:56.919Z,4.53
2018-11-13T20:12:25.248Z,4.20
2018-11-13T20:14:54.354Z,10.60
2018-11-13T20:17:23.649Z,7.83
2018-11-13T20:19:51.798Z,5.37
2018-11-13T20:22:20.291Z,8.47
2018-11-13T20:24:48.938Z,3.57
2018-11-13T20:27:17.921Z,5.90
2018-11-13T20:29:46.091Z,4.10
2018-11-13T20:32:15.362Z,6.10
2018-11-13T20:34:43.700Z,4.40
2018-11-13T20:37:12.617Z,5.73
2018-11-13T20:39:41.022Z,4.30
2018-11-13T20:42:09.550Z,5.73
2018-11-13T20:44:37.763Z,6.85
2018-11-13T20:47:06.549Z,4.60
2018-11-13T20:49:34.880Z,2.70
2018-11-13T20:52:03.726Z,2.43
2018-11-13T20:54:31.802Z,6.27
2018-11-13T20:56:59.987Z,4.53
2018-11-13T20:59:28.108Z,5.20
2018-11-13T21:01:57.606Z,10.93
2018-11-13T21:04:25.683Z,4.03
2018-11-13T21:06:54.881Z,8.50
2018-11-13T21:09:23.748Z,6.20
2018-11-13T21:11:52.499Z,6.87
2018-11-13T21:14:20.590Z,3.37
2018-11-13T21:16:49.716Z,4.77
2018-11-13T21:19:18.160Z,7.53
2018-11-13T21:21:46.410Z,10.77
2018-11-13T21:24:14.570Z,5.07
2018-11-13T21:26:43.315Z,2.60
2018-11-13T21:29:11.877Z,2.90
2018-11-13T21:31:40.719Z,3.62
2018-11-13T21:34:10.019Z,4.23
2018-11-13T21:36:38.274Z,5.33
2018-11-13T21:39:09.033Z,2.90
2018-11-13T21:41:37.376Z,6.90
2018-11-13T21:44:06.437Z,8.30
2018-11-13T21:46:34.558Z,4.57
2018-11-13T21:49:03.302Z,2.17
2018-11-13T21:51:33.178Z,10.38
2018-11-13T21:54:01.897Z,5.80
2018-11-13T21:56:29.970Z,3.00
2018-11-13T21:58:58.217Z,4.33
2018-11-13T22:01:26.300Z,5.60
2018-11-13T22:03:55.486Z,4.83
2018-11-13T22:06:23.418Z,6.43
2018-11-13T22:08:53.005Z,6.93
2018-11-13T22:11:22.751Z,7.00
2018-11-13T22:13:51.321Z,3.93
2018-11-13T22:16:20.017Z,6.20
2018-11-13T22:18:48.910Z,7.07
2018-11-13T22:21:17.335Z,4.67
2018-11-13T22:23:46.534Z,5.83
2018-11-13T22:26:14.933Z,6.47
2018-11-13T22:28:43.180Z,4.87
2018-11-13T22:31:11.219Z,5.80
2018-11-13T22:33:40.660Z,3.12
2018-11-13T22:36:08.737Z,6.80
2018-11-13T22:38:37.413Z,4.83
2018-11-13T22:41:06.472Z,3.93
2018-11-13T22:43:35.733Z,4.60
2018-11-13T22:46:05.188Z,6.30
2018-11-13T22:48:33.853Z,3.47
2018-11-13T22:51:02.630Z,3.83
2018-11-13T22:53:31.424Z,6.17
2018-11-13T22:55:59.849Z,6.33
2018-11-13T22:58:28.962Z,3.98
2018-11-13T23:00:58.440Z,4.87
2018-11-13T23:03:26.734Z,3.80
2018-11-13T23:05:55.713Z,5.40
2018-11-13T23:08:23.897Z,6.47
2018-11-13T23:10:52.374Z,2.50
2018-11-13T23:13:21.731Z,4.55
2018-11-13T23:15:49.919Z,3.90
2018-11-13T23:23:12.639Z,6.37
2018-11-13T23:25:41.089Z,2.43
2018-11-13T23:28:10.184Z,6.33
2018-11-13T23:30:38.636Z,4.27
2018-11-13T23:33:07.650Z,3.97
2018-11-13T23:35:36.653Z,6.78
2018-11-13T23:38:05.805Z,5.03
2018-11-13T23:40:35.721Z,5.30
2018-11-13T23:43:05.781Z,3.23
2018-11-13T23:45:34.611Z,3.50
2018-11-13T23:48:03.245Z,3.33
2018-11-13T23:50:32.780Z,3.17
2018-11-13T23:53:01.454Z,6.27
2018-11-13T23:55:29.708Z,7.93
2018-11-13T23:57:57.809Z,5.10
